Nassauborg — PHDU — position and weather

sailwx.info

Track history (hours):
 
Tides and Currents Weather Stations Pressure Air Temp Water Temp Dewpoint Dewpoint Depression Visibility Wind Speed Wind Dir Waves Ship Positions

Nassauborg

Ship's website: http://www.wagenborg.com/index.cfm?pid=37&itemid=158&contentitemid=236

Last reported at 2015-Jan-25 23:32 UTC. Time now 2015-Feb-02 00:15 UTC.
Position N 56°43' E 017°16'.

Length 143 m; beam 22 m.

Type: Ship. MMSI: 246430000.

Date/timePositionNaut miles runAvg speedWind from/ knotsBaromVisibWave heightAir tempDewpointWater temp
2015-Jan-25 23:32N 56°43' E 017°16'8510.4
2015-Jan-25 15:21N 55°40' E 015°33'1111.6
2015-Jan-25 14:25N 55°35' E 015°16'1011.5
2015-Jan-25 13:33N 55°30' E 015°01'1211.8
2015-Jan-25 12:33N 55°24' E 014°43'1111.2
2015-Jan-25 11:33N 55°16' E 014°28'1210.9
2015-Jan-25 10:29N 55°11' E 014°10'1311.0
2015-Jan-25 09:21N 55°12' E 013°48'1411.3
2015-Jan-25 08:07N 55°13' E 013°24'611.0
2015-Jan-25 07:33N 55°14' E 013°13'1111.4
2015-Jan-25 06:33N 55°15' E 012°53'10 9.8
2015-Jan-25 05:33N 55°21' E 012°39'1111.2
2015-Jan-25 04:33N 55°32' E 012°42'10 9.6
2015-Jan-25 03:33N 55°41' E 012°41'1211.6
2015-Jan-25 02:33N 55°53' E 012°40'1111.2
2015-Jan-25 01:33N 56°04' E 012°37'1010.5
2015-Jan-25 00:33N 56°13' E 012°28'10 9.9
2015-Jan-24 23:33N 56°23' E 012°22'1110.9
2015-Jan-24 22:33N 56°33' E 012°16'1211.7
2015-Jan-24 21:33N 56°44' E 012°09'1211.7
2015-Jan-24 20:33N 56°55' E 012°02'1111.3
2015-Jan-24 19:33N 57°06' E 011°55'1211.6
2015-Jan-24 18:33N 57°16' E 011°45'1111.2
2015-Jan-24 17:33N 57°24' E 011°31'1211.9
2015-Jan-24 16:33N 57°33' E 011°15'1212.2
2015-Jan-24 15:33N 57°41' E 010°58'1412.1
2015-Jan-24 14:26N 57°46' E 010°35'14312.0
2015-Jan-24 02:27N 56°04' E 007°32'1112.1
2015-Jan-24 01:32N 55°53' E 007°27'1611.7
2015-Jan-24 00:10N 55°38' E 007°21'910.8
2015-Jan-23 23:22N 55°29' E 007°23'910.9
2015-Jan-23 22:32N 55°20' E 007°26'1111.2
2015-Jan-23 21:33N 55°09' E 007°26'1211.8
2015-Jan-23 20:33N 54°57' E 007°29'1411.7
2015-Jan-23 19:21N 54°43' E 007°32'1012.4
2015-Jan-23 18:34N 54°34' E 007°33'1212.4
2015-Jan-23 17:33N 54°21' E 007°36'1313.0
2015-Jan-23 16:32N 54°10' E 007°47'1312.9
2015-Jan-23 15:34N 54°02' E 008°04'1313.0
2015-Jan-23 14:34N 53°59' E 008°26'1110.8
2015-Jan-23 13:33N 53°54' E 008°42'9 8.9
2015-Jan-23 12:34N 53°51' E 008°56'9 9.0
2015-Jan-23 11:34N 53°53' E 009°11'0 0.0
2015-Jan-23 10:29N 53°53' E 009°11'0 0.0
2015-Jan-23 09:32N 53°53' E 009°11'0 0.0
2015-Jan-23 08:31N 53°53' E 009°11'0 0.0
2015-Jan-23 07:31N 53°53' E 009°11'0 0.0
2015-Jan-23 06:33N 53°53' E 009°11'0 0.0
2015-Jan-23 05:33N 53°53' E 009°11'0 0.0
2015-Jan-23 04:33N 53°53' E 009°11'0 0.0
2015-Jan-23 03:26N 53°53' E 009°11'0 0.0
2015-Jan-23 02:32N 53°53' E 009°11'0 0.0
2015-Jan-23 01:31N 53°53' E 009°11'0 0.0
2015-Jan-23 00:31N 53°53' E 009°11'0 0.0
2015-Jan-22 23:33N 53°53' E 009°11'0 0.0
2015-Jan-22 22:33N 53°53' E 009°11'0 0.0
2015-Jan-22 21:33N 53°53' E 009°11'0 0.0
2015-Jan-22 20:32N 53°53' E 009°11'0 0.0
2015-Jan-22 19:32N 53°53' E 009°11'0 0.0
2015-Jan-22 18:31N 53°53' E 009°11'0 0.0
2015-Jan-22 17:31N 53°53' E 009°11'0 0.0
2015-Jan-22 16:33N 53°53' E 009°11'0 0.0
2015-Jan-22 15:33N 53°53' E 009°11'0 0.0
2015-Jan-22 14:33N 53°53' E 009°11'0 0.0
2015-Jan-22 13:32N 53°53' E 009°11'0 0.0
2015-Jan-22 12:32N 53°53' E 009°11'0 0.0
2015-Jan-22 11:31N 53°53' E 009°11'0 0.0
2015-Jan-22 10:31N 53°53' E 009°11'0 0.0
2015-Jan-22 09:33N 53°53' E 009°11'0 0.0
2015-Jan-22 08:33N 53°53' E 009°11'0 0.0
2015-Jan-22 07:33N 53°53' E 009°11'0 0.0
2015-Jan-22 06:32N 53°53' E 009°11'0 0.0
2015-Jan-22 05:32N 53°53' E 009°11'0 0.0
2015-Jan-22 04:31N 53°53' E 009°11'0 0.0
2015-Jan-22 03:31N 53°53' E 009°11'0 0.0
2015-Jan-22 02:30N 53°53' E 009°11'0 0.0
2015-Jan-22 01:33N 53°53' E 009°11'0 0.0
2015-Jan-22 00:33N 53°53' E 009°11'0 0.0
2015-Jan-21 23:32N 53°53' E 009°11'0 0.0
2015-Jan-21 22:50N 53°53' E 009°11'0 0.0
2015-Jan-21 22:46N 53°53' E 009°11'0 0.5
2015-Jan-21 22:33N 53°53' E 009°11'0 0.2
2015-Jan-21 21:33N 53°53' E 009°11'7 6.6
2015-Jan-21 20:33N 53°50' E 009°21'8 7.9
2015-Jan-21 19:33N 53°43' E 009°28'9 8.7
2015-Jan-21 18:33N 53°36' E 009°36'1111.4
2015-Jan-21 17:33N 53°33' E 009°54'2 2.1
2015-Jan-21 16:31N 53°32' E 009°58'0 0.0
2015-Jan-21 15:28N 53°32' E 009°58'0 0.0
2015-Jan-21 14:33N 53°32' E 009°58'0 0.0
2015-Jan-21 13:33N 53°32' E 009°58'0 0.0
2015-Jan-21 12:32N 53°32' E 009°58'0 0.0
2015-Jan-21 11:32N 53°32' E 009°58'0 0.0
2015-Jan-21 10:32N 53°32' E 009°58'0 0.0
2015-Jan-21 09:31N 53°32' E 009°58'0 0.0
2015-Jan-21 08:31N 53°32' E 009°58'0 0.0
2015-Jan-21 07:33N 53°32' E 009°58'0 0.0
2015-Jan-21 06:33N 53°32' E 009°58'0 0.0
2015-Jan-21 05:32N 53°32' E 009°58'0 0.0
2015-Jan-21 04:32N 53°32' E 009°58'0 0.0
2015-Jan-21 03:31N 53°32' E 009°58'0 0.0
2015-Jan-21 02:31N 53°32' E 009°58'0 0.0
2015-Jan-21 01:31N 53°32' E 009°58'0 0.0
2015-Jan-21 00:33N 53°32' E 009°58'0 0.0
2015-Jan-20 23:33N 53°32' E 009°58'0 0.0
2015-Jan-20 22:32N 53°32' E 009°58'0 0.0
2015-Jan-20 21:32N 53°32' E 009°58'0 0.0
2015-Jan-20 20:31N 53°32' E 009°58'0 0.0
2015-Jan-20 19:31N 53°32' E 009°58'0 0.0
2015-Jan-20 18:31N 53°32' E 009°58'0 0.0
2015-Jan-20 17:33N 53°32' E 009°58'0 0.0
2015-Jan-20 16:33N 53°32' E 009°58'0 0.0
2015-Jan-20 15:29N 53°32' E 009°58'0 0.0
2015-Jan-20 14:32N 53°32' E 009°58'0 0.0
2015-Jan-20 13:31N 53°32' E 009°58'0 0.0
2015-Jan-20 12:31N 53°32' E 009°58'0 0.0
2015-Jan-20 11:33N 53°32' E 009°58'0 0.0
2015-Jan-20 10:33N 53°32' E 009°58'0 0.0
2015-Jan-20 09:33N 53°32' E 009°58'0 0.0
2015-Jan-20 08:33N 53°32' E 009°58'0 0.0
2015-Jan-20 07:33N 53°32' E 009°58'0 0.0
2015-Jan-20 06:33N 53°32' E 009°58'0 0.0
2015-Jan-20 05:33N 53°32' E 009°58'0 0.0
2015-Jan-20 04:33N 53°32' E 009°58'0 0.0
2015-Jan-20 03:33N 53°32' E 009°58'0 0.0
2015-Jan-20 02:33N 53°32' E 009°58'0 0.0
2015-Jan-20 01:33N 53°32' E 009°58'0 0.0
2015-Jan-20 00:34N 53°32' E 009°58'0 0.0
2015-Jan-19 23:33N 53°32' E 009°58'0 0.0
2015-Jan-19 22:33N 53°32' E 009°58'0 0.0
2015-Jan-19 21:33N 53°32' E 009°58'0 0.0
2015-Jan-19 20:33N 53°32' E 009°58'0 0.0
2015-Jan-19 19:33N 53°32' E 009°58'0 0.0
2015-Jan-19 18:33N 53°32' E 009°58'0 0.0
2015-Jan-19 17:33N 53°32' E 009°58'0 0.0
2015-Jan-19 16:33N 53°32' E 009°58'0 0.0
2015-Jan-19 15:34N 53°32' E 009°58'0 0.0
2015-Jan-19 14:33N 53°32' E 009°58'0 0.0
2015-Jan-19 13:33N 53°32' E 009°58'0 0.0
2015-Jan-19 12:33N 53°32' E 009°58'0 0.0
2015-Jan-19 11:33N 53°32' E 009°58'0 0.0
2015-Jan-19 10:33N 53°32' E 009°58'0 0.0
2015-Jan-19 09:33N 53°32' E 009°58'0 0.0
2015-Jan-19 08:33N 53°32' E 009°58'0 0.0
2015-Jan-19 07:33N 53°32' E 009°58'0 0.0
2015-Jan-19 06:33N 53°32' E 009°58'0 0.0
2015-Jan-19 05:33N 53°32' E 009°58'0 0.0
2015-Jan-19 04:33N 53°32' E 009°58'0 0.0
2015-Jan-19 03:33N 53°32' E 009°58'0 0.0
2015-Jan-19 02:33N 53°32' E 009°58'0 0.0
2015-Jan-19 01:33N 53°32' E 009°58'0 0.0
2015-Jan-19 00:33N 53°32' E 009°58'0 0.0
2015-Jan-18 23:33N 53°32' E 009°58'0 0.0
2015-Jan-18 22:33N 53°32' E 009°58'0 0.0
2015-Jan-18 21:33N 53°32' E 009°58'0 0.0
2015-Jan-18 20:33N 53°32' E 009°58'0 0.0
2015-Jan-18 19:33N 53°32' E 009°58'0 0.0
2015-Jan-18 18:33N 53°32' E 009°58'0 0.0
2015-Jan-18 17:33N 53°32' E 009°58'0 0.0
2015-Jan-18 16:33N 53°32' E 009°58'0 0.0
2015-Jan-18 15:33N 53°32' E 009°58'0 0.0
2015-Jan-18 14:33N 53°32' E 009°58'0 0.0
2015-Jan-18 13:33N 53°32' E 009°58'0 0.0
2015-Jan-18 12:33N 53°32' E 009°58'0 0.0
2015-Jan-18 11:33N 53°32' E 009°58'0 0.0
2015-Jan-18 10:33N 53°32' E 009°58'0 0.0
2015-Jan-18 09:33N 53°32' E 009°58'0 0.0
2015-Jan-18 08:33N 53°32' E 009°58'0 0.0
2015-Jan-18 07:33N 53°32' E 009°58'0 0.0
2015-Jan-18 06:33N 53°32' E 009°58'0 0.0
2015-Jan-18 05:33N 53°32' E 009°58'0 0.0
2015-Jan-18 04:33N 53°32' E 009°58'0 0.0
2015-Jan-18 03:33N 53°32' E 009°58'0 0.0
2015-Jan-18 02:33N 53°32' E 009°58'0 0.0
2015-Jan-18 01:33N 53°32' E 009°58'0 0.0
2015-Jan-18 00:33N 53°32' E 009°58'0 0.0
2015-Jan-17 23:33N 53°32' E 009°58'0 0.0
2015-Jan-17 22:33N 53°32' E 009°58'0 0.0
2015-Jan-17 21:33N 53°32' E 009°58'0 0.0
2015-Jan-17 20:33N 53°32' E 009°58'0 0.0
2015-Jan-17 19:33N 53°32' E 009°58'0 0.0
2015-Jan-17 18:33N 53°32' E 009°58'0 0.0
2015-Jan-17 17:33N 53°32' E 009°58'0 0.0
2015-Jan-17 16:33N 53°32' E 009°58'0 0.0
2015-Jan-17 15:33N 53°32' E 009°58'0 0.0
2015-Jan-17 14:33N 53°32' E 009°58'0 0.0
2015-Jan-17 13:33N 53°32' E 009°58'0 0.0
2015-Jan-17 12:33N 53°32' E 009°58'0 0.0
2015-Jan-17 11:33N 53°32' E 009°58'0 0.0
2015-Jan-17 10:33N 53°32' E 009°58'0 0.0
2015-Jan-17 09:33N 53°32' E 009°58'0 0.0
2015-Jan-17 08:33N 53°32' E 009°58'0 0.0
2015-Jan-17 07:33N 53°32' E 009°58'0 0.0
2015-Jan-17 06:33N 53°32' E 009°58'0 0.0
2015-Jan-17 05:33N 53°32' E 009°58'0 0.0
2015-Jan-17 04:33N 53°32' E 009°58'0 0.0
2015-Jan-17 03:33N 53°32' E 009°58'0 0.0
2015-Jan-17 02:33N 53°32' E 009°58'0 0.0
2015-Jan-17 01:33N 53°32' E 009°58'0 0.0
2015-Jan-17 00:33N 53°32' E 009°58'0 0.0
2015-Jan-16 23:33N 53°32' E 009°58'0 0.0
2015-Jan-16 22:34N 53°32' E 009°58'0 0.0
2015-Jan-16 21:33N 53°32' E 009°58'0 0.0
2015-Jan-16 20:34N 53°32' E 009°58'0 0.0
2015-Jan-16 19:33N 53°32' E 009°58'0 0.0
2015-Jan-16 18:34N 53°32' E 009°58'0 0.0
2015-Jan-16 17:33N 53°32' E 009°58'0 0.0
2015-Jan-16 16:33N 53°32' E 009°58'0 0.0
2015-Jan-16 15:33N 53°32' E 009°58'0 0.0
2015-Jan-16 14:33N 53°32' E 009°58'0 0.0
2015-Jan-16 13:31N 53°32' E 009°58'0 0.0
2015-Jan-16 12:33N 53°32' E 009°58'0 0.0
2015-Jan-16 11:33N 53°32' E 009°58'0 0.0
2015-Jan-16 10:33N 53°32' E 009°58'0 0.0
2015-Jan-16 09:33N 53°32' E 009°58'0 0.0
2015-Jan-16 08:33N 53°32' E 009°58'0 0.0
2015-Jan-16 07:33N 53°32' E 009°58'0 0.0
2015-Jan-16 06:33N 53°32' E 009°58'0 0.0
2015-Jan-16 05:33N 53°32' E 009°58'0 0.0
2015-Jan-16 04:33N 53°32' E 009°58'0 0.0
2015-Jan-16 03:34N 53°32' E 009°58'0 0.0
2015-Jan-16 02:34N 53°32' E 009°58'0 0.0
2015-Jan-16 01:33N 53°32' E 009°58'0 0.0
2015-Jan-16 00:33N 53°32' E 009°58'0 0.0
2015-Jan-15 23:33N 53°32' E 009°58'  
Track history (hours):
 
Tides and Currents Weather Stations Pressure Air Temp Water Temp Dewpoint Dewpoint Depression Visibility Wind Speed Wind Dir Waves Ship Positions

Nassauborg

Ship's website: http://www.wagenborg.com/index.cfm?pid=37&itemid=158&contentitemid=236

Last reported at 2015-Jan-25 23:32 UTC. Time now 2015-Feb-02 00:15 UTC.
Position N 56°43' E 017°16'.

Length 143 m; beam 22 m.

Type: Ship. MMSI: 246430000.

Date/timePositionNaut miles runAvg speedWind from/ knotsBaromVisibWave heightAir tempDewpointWater temp
2015-Jan-25 23:32N 56°43' E 017°16'8510.4
2015-Jan-25 15:21N 55°40' E 015°33'1111.6
2015-Jan-25 14:25N 55°35' E 015°16'1011.5
2015-Jan-25 13:33N 55°30' E 015°01'1211.8
2015-Jan-25 12:33N 55°24' E 014°43'1111.2
2015-Jan-25 11:33N 55°16' E 014°28'1210.9
2015-Jan-25 10:29N 55°11' E 014°10'1311.0
2015-Jan-25 09:21N 55°12' E 013°48'1411.3
2015-Jan-25 08:07N 55°13' E 013°24'611.0
2015-Jan-25 07:33N 55°14' E 013°13'1111.4
2015-Jan-25 06:33N 55°15' E 012°53'10 9.8
2015-Jan-25 05:33N 55°21' E 012°39'1111.2
2015-Jan-25 04:33N 55°32' E 012°42'10 9.6
2015-Jan-25 03:33N 55°41' E 012°41'1211.6
2015-Jan-25 02:33N 55°53' E 012°40'1111.2
2015-Jan-25 01:33N 56°04' E 012°37'1010.5
2015-Jan-25 00:33N 56°13' E 012°28'10 9.9
2015-Jan-24 23:33N 56°23' E 012°22'1110.9
2015-Jan-24 22:33N 56°33' E 012°16'1211.7
2015-Jan-24 21:33N 56°44' E 012°09'1211.7
2015-Jan-24 20:33N 56°55' E 012°02'1111.3
2015-Jan-24 19:33N 57°06' E 011°55'1211.6
2015-Jan-24 18:33N 57°16' E 011°45'1111.2
2015-Jan-24 17:33N 57°24' E 011°31'1211.9
2015-Jan-24 16:33N 57°33' E 011°15'1212.2
2015-Jan-24 15:33N 57°41' E 010°58'1412.1
2015-Jan-24 14:26N 57°46' E 010°35'14312.0
2015-Jan-24 02:27N 56°04' E 007°32'1112.1
2015-Jan-24 01:32N 55°53' E 007°27'1611.7
2015-Jan-24 00:10N 55°38' E 007°21'910.8
2015-Jan-23 23:22N 55°29' E 007°23'910.9
2015-Jan-23 22:32N 55°20' E 007°26'1111.2
2015-Jan-23 21:33N 55°09' E 007°26'1211.8
2015-Jan-23 20:33N 54°57' E 007°29'1411.7
2015-Jan-23 19:21N 54°43' E 007°32'1012.4
2015-Jan-23 18:34N 54°34' E 007°33'1212.4
2015-Jan-23 17:33N 54°21' E 007°36'1313.0
2015-Jan-23 16:32N 54°10' E 007°47'1312.9
2015-Jan-23 15:34N 54°02' E 008°04'1313.0
2015-Jan-23 14:34N 53°59' E 008°26'1110.8
2015-Jan-23 13:33N 53°54' E 008°42'9 8.9
2015-Jan-23 12:34N 53°51' E 008°56'9 9.0
2015-Jan-23 11:34N 53°53' E 009°11'0 0.0
2015-Jan-23 10:29N 53°53' E 009°11'0 0.0
2015-Jan-23 09:32N 53°53' E 009°11'0 0.0
2015-Jan-23 08:31N 53°53' E 009°11'0 0.0
2015-Jan-23 07:31N 53°53' E 009°11'0 0.0
2015-Jan-23 06:33N 53°53' E 009°11'0 0.0
2015-Jan-23 05:33N 53°53' E 009°11'0 0.0
2015-Jan-23 04:33N 53°53' E 009°11'0 0.0
2015-Jan-23 03:26N 53°53' E 009°11'0 0.0
2015-Jan-23 02:32N 53°53' E 009°11'0 0.0
2015-Jan-23 01:31N 53°53' E 009°11'0 0.0
2015-Jan-23 00:31N 53°53' E 009°11'0 0.0
2015-Jan-22 23:33N 53°53' E 009°11'0 0.0
2015-Jan-22 22:33N 53°53' E 009°11'0 0.0
2015-Jan-22 21:33N 53°53' E 009°11'0 0.0
2015-Jan-22 20:32N 53°53' E 009°11'0 0.0
2015-Jan-22 19:32N 53°53' E 009°11'0 0.0
2015-Jan-22 18:31N 53°53' E 009°11'0 0.0
2015-Jan-22 17:31N 53°53' E 009°11'0 0.0
2015-Jan-22 16:33N 53°53' E 009°11'0 0.0
2015-Jan-22 15:33N 53°53' E 009°11'0 0.0
2015-Jan-22 14:33N 53°53' E 009°11'0 0.0
2015-Jan-22 13:32N 53°53' E 009°11'0 0.0
2015-Jan-22 12:32N 53°53' E 009°11'0 0.0
2015-Jan-22 11:31N 53°53' E 009°11'0 0.0
2015-Jan-22 10:31N 53°53' E 009°11'0 0.0
2015-Jan-22 09:33N 53°53' E 009°11'0 0.0
2015-Jan-22 08:33N 53°53' E 009°11'0 0.0
2015-Jan-22 07:33N 53°53' E 009°11'0 0.0
2015-Jan-22 06:32N 53°53' E 009°11'0 0.0
2015-Jan-22 05:32N 53°53' E 009°11'0 0.0
2015-Jan-22 04:31N 53°53' E 009°11'0 0.0
2015-Jan-22 03:31N 53°53' E 009°11'0 0.0
2015-Jan-22 02:30N 53°53' E 009°11'0 0.0
2015-Jan-22 01:33N 53°53' E 009°11'0 0.0
2015-Jan-22 00:33N 53°53' E 009°11'0 0.0
2015-Jan-21 23:32N 53°53' E 009°11'0 0.0
2015-Jan-21 22:50N 53°53' E 009°11'0 0.0
2015-Jan-21 22:46N 53°53' E 009°11'0 0.5
2015-Jan-21 22:33N 53°53' E 009°11'0 0.2
2015-Jan-21 21:33N 53°53' E 009°11'7 6.6
2015-Jan-21 20:33N 53°50' E 009°21'8 7.9
2015-Jan-21 19:33N 53°43' E 009°28'9 8.7
2015-Jan-21 18:33N 53°36' E 009°36'1111.4
2015-Jan-21 17:33N 53°33' E 009°54'2 2.1
2015-Jan-21 16:31N 53°32' E 009°58'0 0.0
2015-Jan-21 15:28N 53°32' E 009°58'0 0.0
2015-Jan-21 14:33N 53°32' E 009°58'0 0.0
2015-Jan-21 13:33N 53°32' E 009°58'0 0.0
2015-Jan-21 12:32N 53°32' E 009°58'0 0.0
2015-Jan-21 11:32N 53°32' E 009°58'0 0.0
2015-Jan-21 10:32N 53°32' E 009°58'0 0.0
2015-Jan-21 09:31N 53°32' E 009°58'0 0.0
2015-Jan-21 08:31N 53°32' E 009°58'0 0.0
2015-Jan-21 07:33N 53°32' E 009°58'0 0.0
2015-Jan-21 06:33N 53°32' E 009°58'0 0.0
2015-Jan-21 05:32N 53°32' E 009°58'0 0.0
2015-Jan-21 04:32N 53°32' E 009°58'0 0.0
2015-Jan-21 03:31N 53°32' E 009°58'0 0.0
2015-Jan-21 02:31N 53°32' E 009°58'0 0.0
2015-Jan-21 01:31N 53°32' E 009°58'0 0.0
2015-Jan-21 00:33N 53°32' E 009°58'0 0.0
2015-Jan-20 23:33N 53°32' E 009°58'0 0.0
2015-Jan-20 22:32N 53°32' E 009°58'0 0.0
2015-Jan-20 21:32N 53°32' E 009°58'0 0.0
2015-Jan-20 20:31N 53°32' E 009°58'0 0.0
2015-Jan-20 19:31N 53°32' E 009°58'0 0.0
2015-Jan-20 18:31N 53°32' E 009°58'0 0.0
2015-Jan-20 17:33N 53°32' E 009°58'0 0.0
2015-Jan-20 16:33N 53°32' E 009°58'0 0.0
2015-Jan-20 15:29N 53°32' E 009°58'0 0.0
2015-Jan-20 14:32N 53°32' E 009°58'0 0.0
2015-Jan-20 13:31N 53°32' E 009°58'0 0.0
2015-Jan-20 12:31N 53°32' E 009°58'0 0.0
2015-Jan-20 11:33N 53°32' E 009°58'0 0.0
2015-Jan-20 10:33N 53°32' E 009°58'0 0.0
2015-Jan-20 09:33N 53°32' E 009°58'0 0.0
2015-Jan-20 08:33N 53°32' E 009°58'0 0.0
2015-Jan-20 07:33N 53°32' E 009°58'0 0.0
2015-Jan-20 06:33N 53°32' E 009°58'0 0.0
2015-Jan-20 05:33N 53°32' E 009°58'0 0.0
2015-Jan-20 04:33N 53°32' E 009°58'0 0.0
2015-Jan-20 03:33N 53°32' E 009°58'0 0.0
2015-Jan-20 02:33N 53°32' E 009°58'0 0.0
2015-Jan-20 01:33N 53°32' E 009°58'0 0.0
2015-Jan-20 00:34N 53°32' E 009°58'0 0.0
2015-Jan-19 23:33N 53°32' E 009°58'0 0.0
2015-Jan-19 22:33N 53°32' E 009°58'0 0.0
2015-Jan-19 21:33N 53°32' E 009°58'0 0.0
2015-Jan-19 20:33N 53°32' E 009°58'0 0.0
2015-Jan-19 19:33N 53°32' E 009°58'0 0.0
2015-Jan-19 18:33N 53°32' E 009°58'0 0.0
2015-Jan-19 17:33N 53°32' E 009°58'0 0.0
2015-Jan-19 16:33N 53°32' E 009°58'0 0.0
2015-Jan-19 15:34N 53°32' E 009°58'0 0.0
2015-Jan-19 14:33N 53°32' E 009°58'0 0.0
2015-Jan-19 13:33N 53°32' E 009°58'0 0.0
2015-Jan-19 12:33N 53°32' E 009°58'0 0.0
2015-Jan-19 11:33N 53°32' E 009°58'0 0.0
2015-Jan-19 10:33N 53°32' E 009°58'0 0.0
2015-Jan-19 09:33N 53°32' E 009°58'0 0.0
2015-Jan-19 08:33N 53°32' E 009°58'0 0.0
2015-Jan-19 07:33N 53°32' E 009°58'0 0.0
2015-Jan-19 06:33N 53°32' E 009°58'0 0.0
2015-Jan-19 05:33N 53°32' E 009°58'0 0.0
2015-Jan-19 04:33N 53°32' E 009°58'0 0.0
2015-Jan-19 03:33N 53°32' E 009°58'0 0.0
2015-Jan-19 02:33N 53°32' E 009°58'0 0.0
2015-Jan-19 01:33N 53°32' E 009°58'0 0.0
2015-Jan-19 00:33N 53°32' E 009°58'0 0.0
2015-Jan-18 23:33N 53°32' E 009°58'0 0.0
2015-Jan-18 22:33N 53°32' E 009°58'0 0.0
2015-Jan-18 21:33N 53°32' E 009°58'0 0.0
2015-Jan-18 20:33N 53°32' E 009°58'0 0.0
2015-Jan-18 19:33N 53°32' E 009°58'0 0.0
2015-Jan-18 18:33N 53°32' E 009°58'0 0.0
2015-Jan-18 17:33N 53°32' E 009°58'0 0.0
2015-Jan-18 16:33N 53°32' E 009°58'0 0.0
2015-Jan-18 15:33N 53°32' E 009°58'0 0.0
2015-Jan-18 14:33N 53°32' E 009°58'0 0.0
2015-Jan-18 13:33N 53°32' E 009°58'0 0.0
2015-Jan-18 12:33N 53°32' E 009°58'0 0.0
2015-Jan-18 11:33N 53°32' E 009°58'0 0.0
2015-Jan-18 10:33N 53°32' E 009°58'0 0.0
2015-Jan-18 09:33N 53°32' E 009°58'0 0.0
2015-Jan-18 08:33N 53°32' E 009°58'0 0.0
2015-Jan-18 07:33N 53°32' E 009°58'0 0.0
2015-Jan-18 06:33N 53°32' E 009°58'0 0.0
2015-Jan-18 05:33N 53°32' E 009°58'0 0.0
2015-Jan-18 04:33N 53°32' E 009°58'0 0.0
2015-Jan-18 03:33N 53°32' E 009°58'0 0.0
2015-Jan-18 02:33N 53°32' E 009°58'0 0.0
2015-Jan-18 01:33N 53°32' E 009°58'0 0.0
2015-Jan-18 00:33N 53°32' E 009°58'0 0.0
2015-Jan-17 23:33N 53°32' E 009°58'0 0.0
2015-Jan-17 22:33N 53°32' E 009°58'0 0.0
2015-Jan-17 21:33N 53°32' E 009°58'0 0.0
2015-Jan-17 20:33N 53°32' E 009°58'0 0.0
2015-Jan-17 19:33N 53°32' E 009°58'0 0.0
2015-Jan-17 18:33N 53°32' E 009°58'0 0.0
2015-Jan-17 17:33N 53°32' E 009°58'0 0.0
2015-Jan-17 16:33N 53°32' E 009°58'0 0.0
2015-Jan-17 15:33N 53°32' E 009°58'0 0.0
2015-Jan-17 14:33N 53°32' E 009°58'0 0.0
2015-Jan-17 13:33N 53°32' E 009°58'0 0.0
2015-Jan-17 12:33N 53°32' E 009°58'0 0.0
2015-Jan-17 11:33N 53°32' E 009°58'0 0.0
2015-Jan-17 10:33N 53°32' E 009°58'0 0.0
2015-Jan-17 09:33N 53°32' E 009°58'0 0.0
2015-Jan-17 08:33N 53°32' E 009°58'0 0.0
2015-Jan-17 07:33N 53°32' E 009°58'0 0.0
2015-Jan-17 06:33N 53°32' E 009°58'0 0.0
2015-Jan-17 05:33N 53°32' E 009°58'0 0.0
2015-Jan-17 04:33N 53°32' E 009°58'0 0.0
2015-Jan-17 03:33N 53°32' E 009°58'0 0.0
2015-Jan-17 02:33N 53°32' E 009°58'0 0.0
2015-Jan-17 01:33N 53°32' E 009°58'0 0.0
2015-Jan-17 00:33N 53°32' E 009°58'0 0.0
2015-Jan-16 23:33N 53°32' E 009°58'0 0.0
2015-Jan-16 22:34N 53°32' E 009°58'0 0.0
2015-Jan-16 21:33N 53°32' E 009°58'0 0.0
2015-Jan-16 20:34N 53°32' E 009°58'0 0.0
2015-Jan-16 19:33N 53°32' E 009°58'0 0.0
2015-Jan-16 18:34N 53°32' E 009°58'0 0.0
2015-Jan-16 17:33N 53°32' E 009°58'0 0.0
2015-Jan-16 16:33N 53°32' E 009°58'0 0.0
2015-Jan-16 15:33N 53°32' E 009°58'0 0.0
2015-Jan-16 14:33N 53°32' E 009°58'0 0.0
2015-Jan-16 13:31N 53°32' E 009°58'0 0.0
2015-Jan-16 12:33N 53°32' E 009°58'0 0.0
2015-Jan-16 11:33N 53°32' E 009°58'0 0.0
2015-Jan-16 10:33N 53°32' E 009°58'0 0.0
2015-Jan-16 09:33N 53°32' E 009°58'0 0.0
2015-Jan-16 08:33N 53°32' E 009°58'0 0.0
2015-Jan-16 07:33N 53°32' E 009°58'0 0.0
2015-Jan-16 06:33N 53°32' E 009°58'0 0.0
2015-Jan-16 05:33N 53°32' E 009°58'0 0.0
2015-Jan-16 04:33N 53°32' E 009°58'0 0.0
2015-Jan-16 03:34N 53°32' E 009°58'0 0.0
2015-Jan-16 02:34N 53°32' E 009°58'0 0.0
2015-Jan-16 01:33N 53°32' E 009°58'0 0.0
2015-Jan-16 00:33N 53°32' E 009°58'0 0.0
2015-Jan-15 23:33N 53°32' E 009°58'  

Dump ship's entire track history